sensor_id;sensor_type;location;lat;lon;timestamp;temperature;humidity
68251;DHT22;55066;51.560;4.642;2024-03-02T00:01:57;5.90;99.99
68251;DHT22;55066;51.560;4.642;2024-03-02T00:04:35;5.89;99.99
68251;DHT22;55066;51.560;4.642;2024-03-02T00:07:16;5.90;99.99
68251;DHT22;55066;51.560;4.642;2024-03-02T00:09:54;5.86;99.99
68251;DHT22;55066;51.560;4.642;2024-03-02T00:12:47;5.89;99.99
68251;DHT22;55066;51.560;4.642;2024-03-02T00:16:17;5.94;99.99
68251;DHT22;55066;51.560;4.642;2024-03-02T00:18:42;5.90;99.99
68251;DHT22;55066;51.560;4.642;2024-03-02T00:21:16;5.89;99.99
68251;DHT22;55066;51.560;4.642;2024-03-02T00:24:17;5.87;99.99
68251;DHT22;55066;51.560;4.642;2024-03-02T00:27:16;5.86;99.99
68251;DHT22;55066;51.560;4.642;2024-03-02T00:32:48;5.83;99.99
68251;DHT22;55066;51.560;4.642;2024-03-02T00:35:30;5.86;99.99
68251;DHT22;55066;51.560;4.642;2024-03-02T00:38:14;5.81;99.99
68251;DHT22;55066;51.560;4.642;2024-03-02T00:41:05;5.77;99.99
68251;DHT22;55066;51.560;4.642;2024-03-02T00:44:26;5.76;99.99
68251;DHT22;55066;51.560;4.642;2024-03-02T00:47:00;5.76;99.99
68251;DHT22;55066;51.560;4.642;2024-03-02T00:49:49;5.71;99.99
68251;DHT22;55066;51.560;4.642;2024-03-02T00:52:24;5.73;99.99
68251;DHT22;55066;51.560;4.642;2024-03-02T00:55:00;5.74;99.99
68251;DHT22;55066;51.560;4.642;2024-03-02T00:57:41;5.69;99.99
68251;DHT22;55066;51.560;4.642;2024-03-02T01:00:15;5.66;99.99
68251;DHT22;55066;51.560;4.642;2024-03-02T01:02:48;5.67;99.99
68251;DHT22;55066;51.560;4.642;2024-03-02T01:05:33;5.67;99.99
68251;DHT22;55066;51.560;4.642;2024-03-02T01:08:14;5.67;99.99
68251;DHT22;55066;51.560;4.642;2024-03-02T01:11:05;5.70;99.99
68251;DHT22;55066;51.560;4.642;2024-03-02T01:14:12;5.66;99.99
68251;DHT22;55066;51.560;4.642;2024-03-02T01:19:42;5.71;99.99
68251;DHT22;55066;51.560;4.642;2024-03-02T01:22:14;5.69;99.99
68251;DHT22;55066;51.560;4.642;2024-03-02T01:25:00;5.67;99.99
68251;DHT22;55066;51.560;4.642;2024-03-02T01:28:05;5.66;99.99
68251;DHT22;55066;51.560;4.642;2024-03-02T01:31:03;5.65;99.99
68251;DHT22;55066;51.560;4.642;2024-03-02T01:33:36;5.63;99.99
68251;DHT22;55066;51.560;4.642;2024-03-02T01:36:40;5.60;99.99
68251;DHT22;55066;51.560;4.642;2024-03-02T01:39:15;5.59;99.99
68251;DHT22;55066;51.560;4.642;2024-03-02T01:42:11;5.58;99.99
68251;DHT22;55066;51.560;4.642;2024-03-02T01:44:54;5.52;99.99
68251;DHT22;55066;51.560;4.642;2024-03-02T01:48:01;5.52;99.99
68251;DHT22;55066;51.560;4.642;2024-03-02T01:51:03;5.46;99.99
68251;DHT22;55066;51.560;4.642;2024-03-02T01:53:42;5.46;99.99
68251;DHT22;55066;51.560;4.642;2024-03-02T01:56:18;5.45;99.99
68251;DHT22;55066;51.560;4.642;2024-03-02T01:59:03;5.43;99.99
68251;DHT22;55066;51.560;4.642;2024-03-02T02:01:48;5.48;99.99
68251;DHT22;55066;51.560;4.642;2024-03-02T02:04:43;5.51;99.99
68251;DHT22;55066;51.560;4.642;2024-03-02T02:07:20;5.51;99.99
68251;DHT22;55066;51.560;4.642;2024-03-02T02:10:18;5.55;99.99
68251;DHT22;55066;51.560;4.642;2024-03-02T02:13:25;5.53;99.99
68251;DHT22;55066;51.560;4.642;2024-03-02T02:18:52;5.52;99.99
68251;DHT22;55066;51.560;4.642;2024-03-02T02:21:26;5.56;99.99
68251;DHT22;55066;51.560;4.642;2024-03-02T02:24:17;5.62;99.99
68251;DHT22;55066;51.560;4.642;2024-03-02T02:27:03;5.58;99.99
68251;DHT22;55066;51.560;4.642;2024-03-02T02:29:32;5.60;99.99
68251;DHT22;55066;51.560;4.642;2024-03-02T02:32:06;5.58;99.99
68251;DHT22;55066;51.560;4.642;2024-03-02T02:34:40;5.62;99.99
68251;DHT22;55066;51.560;4.642;2024-03-02T02:37:12;5.66;99.99
68251;DHT22;55066;51.560;4.642;2024-03-02T02:40:02;5.67;99.99
68251;DHT22;55066;51.560;4.642;2024-03-02T02:43:28;5.70;99.99
68251;DHT22;55066;51.560;4.642;2024-03-02T02:46:22;5.66;99.99
68251;DHT22;55066;51.560;4.642;2024-03-02T02:49:00;5.60;99.99
68251;DHT22;55066;51.560;4.642;2024-03-02T02:51:29;5.53;99.99
68251;DHT22;55066;51.560;4.642;2024-03-02T02:54:04;5.34;99.99
68251;DHT22;55066;51.560;4.642;2024-03-02T02:56:35;5.30;99.99
68251;DHT22;55066;51.560;4.642;2024-03-02T02:59:51;5.20;99.99
68251;DHT22;55066;51.560;4.642;2024-03-02T03:02:47;5.13;99.99
68251;DHT22;55066;51.560;4.642;2024-03-02T03:05:23;5.01;99.99
68251;DHT22;55066;51.560;4.642;2024-03-02T03:08:06;5.03;99.99
68251;DHT22;55066;51.560;4.642;2024-03-02T03:11:21;5.01;99.99
68251;DHT22;55066;51.560;4.642;2024-03-02T03:14:06;4.95;99.99
68251;DHT22;55066;51.560;4.642;2024-03-02T03:16:38;4.88;99.99
68251;DHT22;55066;51.560;4.642;2024-03-02T03:19:24;4.80;99.99
68251;DHT22;55066;51.560;4.642;2024-03-02T03:22:09;4.76;99.99
68251;DHT22;55066;51.560;4.642;2024-03-02T03:25:05;4.79;99.99
68251;DHT22;55066;51.560;4.642;2024-03-02T03:27:59;4.75;99.99
68251;DHT22;55066;51.560;4.642;2024-03-02T03:33:51;4.79;99.99
68251;DHT22;55066;51.560;4.642;2024-03-02T03:36:47;4.67;99.99
68251;DHT22;55066;51.560;4.642;2024-03-02T03:39:19;4.69;99.99
68251;DHT22;55066;51.560;4.642;2024-03-02T03:41:58;4.57;99.99
68251;DHT22;55066;51.560;4.642;2024-03-02T03:44:32;4.62;99.99
68251;DHT22;55066;51.560;4.642;2024-03-02T03:47:18;4.67;99.99
68251;DHT22;55066;51.560;4.642;2024-03-02T03:49:57;4.63;99.99
68251;DHT22;55066;51.560;4.642;2024-03-02T03:52:57;4.75;99.99
68251;DHT22;55066;51.560;4.642;2024-03-02T03:55:38;4.65;99.99
68251;DHT22;55066;51.560;4.642;2024-03-02T03:58:16;4.65;99.99
68251;DHT22;55066;51.560;4.642;2024-03-02T04:01:09;4.65;99.99
68251;DHT22;55066;51.560;4.642;2024-03-02T04:03:39;4.67;99.99
68251;DHT22;55066;51.560;4.642;2024-03-02T04:06:23;4.70;99.99
68251;DHT22;55066;51.560;4.642;2024-03-02T04:08:59;4.73;99.99
68251;DHT22;55066;51.560;4.642;2024-03-02T04:11:45;4.75;99.99
68251;DHT22;55066;51.560;4.642;2024-03-02T04:14:28;4.79;99.99
68251;DHT22;55066;51.560;4.642;2024-03-02T04:20:48;5.10;99.99
68251;DHT22;55066;51.560;4.642;2024-03-02T04:23:19;5.11;99.99
68251;DHT22;55066;51.560;4.642;2024-03-02T04:26:11;5.14;99.99
68251;DHT22;55066;51.560;4.642;2024-03-02T04:28:42;5.11;99.99
68251;DHT22;55066;51.560;4.642;2024-03-02T04:31:17;5.14;99.99
68251;DHT22;55066;51.560;4.642;2024-03-02T04:33:55;5.21;99.99
68251;DHT22;55066;51.560;4.642;2024-03-02T04:36:26;5.20;99.99
68251;DHT22;55066;51.560;4.642;2024-03-02T04:39:43;5.21;99.99
68251;DHT22;55066;51.560;4.642;2024-03-02T04:42:12;5.14;99.99
68251;DHT22;55066;51.560;4.642;2024-03-02T04:45:11;5.03;99.99
68251;DHT22;55066;51.560;4.642;2024-03-02T04:48:29;4.91;99.99
68251;DHT22;55066;51.560;4.642;2024-03-02T04:51:05;4.97;99.99
68251;DHT22;55066;51.560;4.642;2024-03-02T04:57:01;4.60;99.99
68251;DHT22;55066;51.560;4.642;2024-03-02T04:59:59;4.52;99.99
68251;DHT22;55066;51.560;4.642;2024-03-02T05:02:48;4.50;99.99
68251;DHT22;55066;51.560;4.642;2024-03-02T05:05:28;4.56;99.99
68251;DHT22;55066;51.560;4.642;2024-03-02T05:10:59;4.77;99.99
68251;DHT22;55066;51.560;4.642;2024-03-02T05:13:46;4.90;99.99
68251;DHT22;55066;51.560;4.642;2024-03-02T05:16:21;4.98;99.99
68251;DHT22;55066;51.560;4.642;2024-03-02T05:18:53;5.00;99.99
68251;DHT22;55066;51.560;4.642;2024-03-02T05:21:36;5.08;99.99
68251;DHT22;55066;51.560;4.642;2024-03-02T05:24:32;5.14;99.99
68251;DHT22;55066;51.560;4.642;2024-03-02T05:27:20;5.07;99.99
68251;DHT22;55066;51.560;4.642;2024-03-02T05:30:20;5.11;99.99
68251;DHT22;55066;51.560;4.642;2024-03-02T05:32:58;5.15;99.99
68251;DHT22;55066;51.560;4.642;2024-03-02T05:35:43;5.08;99.99
68251;DHT22;55066;51.560;4.642;2024-03-02T05:38:29;5.07;99.99
68251;DHT22;55066;51.560;4.642;2024-03-02T05:41:04;4.95;99.99
68251;DHT22;55066;51.560;4.642;2024-03-02T05:43:36;4.88;99.99
68251;DHT22;55066;51.560;4.642;2024-03-02T05:46:15;4.70;99.99
68251;DHT22;55066;51.560;4.642;2024-03-02T05:49:09;4.72;99.99
68251;DHT22;55066;51.560;4.642;2024-03-02T05:51:51;4.65;99.99
68251;DHT22;55066;51.560;4.642;2024-03-02T05:54:32;4.56;99.99
68251;DHT22;55066;51.560;4.642;2024-03-02T05:57:23;4.65;99.99
68251;DHT22;55066;51.560;4.642;2024-03-02T06:00:16;4.56;99.99
68251;DHT22;55066;51.560;4.642;2024-03-02T06:03:51;4.44;99.99
68251;DHT22;55066;51.560;4.642;2024-03-02T06:06:32;4.50;99.99
68251;DHT22;55066;51.560;4.642;2024-03-02T06:09:15;4.56;99.99
68251;DHT22;55066;51.560;4.642;2024-03-02T06:11:49;4.55;99.99
68251;DHT22;55066;51.560;4.642;2024-03-02T06:14:29;4.45;99.99
68251;DHT22;55066;51.560;4.642;2024-03-02T06:17:06;4.37;99.99
68251;DHT22;55066;51.560;4.642;2024-03-02T06:19:45;4.44;99.99
68251;DHT22;55066;51.560;4.642;2024-03-02T06:22:28;4.53;99.99
68251;DHT22;55066;51.560;4.642;2024-03-02T06:25:17;4.45;99.99
68251;DHT22;55066;51.560;4.642;2024-03-02T06:27:57;4.37;99.99
68251;DHT22;55066;51.560;4.642;2024-03-02T06:30:41;4.49;99.99
68251;DHT22;55066;51.560;4.642;2024-03-02T06:33:18;4.45;99.99
68251;DHT22;55066;51.560;4.642;2024-03-02T06:35:52;4.50;99.99
68251;DHT22;55066;51.560;4.642;2024-03-02T06:38:31;4.41;99.99
68251;DHT22;55066;51.560;4.642;2024-03-02T06:44:29;4.39;99.99
68251;DHT22;55066;51.560;4.642;2024-03-02T06:47:23;4.31;99.99
68251;DHT22;55066;51.560;4.642;2024-03-02T06:49:56;4.31;99.99
68251;DHT22;55066;51.560;4.642;2024-03-02T06:55:28;4.46;99.99
68251;DHT22;55066;51.560;4.642;2024-03-02T06:58:01;4.29;99.99
68251;DHT22;55066;51.560;4.642;2024-03-02T07:00:38;4.31;99.99
68251;DHT22;55066;51.560;4.642;2024-03-02T07:03:23;4.49;99.99
68251;DHT22;55066;51.560;4.642;2024-03-02T07:06:03;4.35;99.99
68251;DHT22;55066;51.560;4.642;2024-03-02T07:08:39;4.34;99.99
68251;DHT22;55066;51.560;4.642;2024-03-02T07:11:32;4.42;99.99
68251;DHT22;55066;51.560;4.642;2024-03-02T07:14:22;4.38;99.99
68251;DHT22;55066;51.560;4.642;2024-03-02T07:17:18;4.46;99.99
68251;DHT22;55066;51.560;4.642;2024-03-02T07:20:21;4.53;99.99
68251;DHT22;55066;51.560;4.642;2024-03-02T07:22:50;4.49;99.99
68251;DHT22;55066;51.560;4.642;2024-03-02T07:25:29;4.57;99.99
68251;DHT22;55066;51.560;4.642;2024-03-02T07:28:39;4.63;99.99
68251;DHT22;55066;51.560;4.642;2024-03-02T07:31:12;4.65;99.99
68251;DHT22;55066;51.560;4.642;2024-03-02T07:36:40;4.67;99.99
68251;DHT22;55066;51.560;4.642;2024-03-02T07:39:06;4.75;99.99
68251;DHT22;55066;51.560;4.642;2024-03-02T07:41:32;4.87;99.99
68251;DHT22;55066;51.560;4.642;2024-03-02T07:43:58;4.87;99.99
68251;DHT22;55066;51.560;4.642;2024-03-02T07:46:23;4.88;99.99
68251;DHT22;55066;51.560;4.642;2024-03-02T07:48:49;4.87;99.99
68251;DHT22;55066;51.560;4.642;2024-03-02T07:51:17;5.08;99.99
68251;DHT22;55066;51.560;4.642;2024-03-02T07:53:42;5.04;99.99
68251;DHT22;55066;51.560;4.642;2024-03-02T07:56:07;5.07;99.99
68251;DHT22;55066;51.560;4.642;2024-03-02T07:58:33;5.21;99.99
68251;DHT22;55066;51.560;4.642;2024-03-02T08:01:01;5.30;99.99
68251;DHT22;55066;51.560;4.642;2024-03-02T08:03:27;5.27;99.99
68251;DHT22;55066;51.560;4.642;2024-03-02T08:05:52;5.31;99.99
68251;DHT22;55066;51.560;4.642;2024-03-02T08:08:24;5.36;99.99
68251;DHT22;55066;51.560;4.642;2024-03-02T08:10:50;5.48;99.99
68251;DHT22;55066;51.560;4.642;2024-03-02T08:13:15;5.59;99.99
68251;DHT22;55066;51.560;4.642;2024-03-02T08:15:41;5.58;99.99
68251;DHT22;55066;51.560;4.642;2024-03-02T08:18:07;5.76;99.99
68251;DHT22;55066;51.560;4.642;2024-03-02T08:20:33;5.76;99.99
68251;DHT22;55066;51.560;4.642;2024-03-02T08:22:58;5.87;99.99
68251;DHT22;55066;51.560;4.642;2024-03-02T08:25:24;6.00;99.99
68251;DHT22;55066;51.560;4.642;2024-03-02T08:27:49;6.00;99.99
68251;DHT22;55066;51.560;4.642;2024-03-02T08:30:17;6.08;99.99
68251;DHT22;55066;51.560;4.642;2024-03-02T08:32:43;6.16;99.99
68251;DHT22;55066;51.560;4.642;2024-03-02T08:35:10;6.18;99.99
68251;DHT22;55066;51.560;4.642;2024-03-02T08:37:38;6.25;99.99
68251;DHT22;55066;51.560;4.642;2024-03-02T08:40:06;6.34;99.99
68251;DHT22;55066;51.560;4.642;2024-03-02T08:42:32;6.44;99.99
68251;DHT22;55066;51.560;4.642;2024-03-02T08:44:58;6.49;99.99
68251;DHT22;55066;51.560;4.642;2024-03-02T08:47:26;6.72;99.99
68251;DHT22;55066;51.560;4.642;2024-03-02T08:49:52;6.89;99.99
68251;DHT22;55066;51.560;4.642;2024-03-02T08:52:17;6.96;99.99
68251;DHT22;55066;51.560;4.642;2024-03-02T08:54:43;7.03;99.99
68251;DHT22;55066;51.560;4.642;2024-03-02T08:57:08;7.05;99.99
68251;DHT22;55066;51.560;4.642;2024-03-02T08:59:34;7.15;99.99
68251;DHT22;55066;51.560;4.642;2024-03-02T09:01:59;7.21;99.99
68251;DHT22;55066;51.560;4.642;2024-03-02T09:04:25;7.32;99.99
68251;DHT22;55066;51.560;4.642;2024-03-02T09:06:50;7.36;99.99
68251;DHT22;55066;51.560;4.642;2024-03-02T09:09:16;7.44;99.99
68251;DHT22;55066;51.560;4.642;2024-03-02T09:11:41;7.51;99.99
68251;DHT22;55066;51.560;4.642;2024-03-02T09:14:07;7.52;99.99
68251;DHT22;55066;51.560;4.642;2024-03-02T09:16:32;7.62;99.99
68251;DHT22;55066;51.560;4.642;2024-03-02T09:18:58;7.66;99.99
68251;DHT22;55066;51.560;4.642;2024-03-02T09:21:23;7.79;99.99
68251;DHT22;55066;51.560;4.642;2024-03-02T09:23:50;7.83;99.99
68251;DHT22;55066;51.560;4.642;2024-03-02T09:26:16;7.89;99.99
68251;DHT22;55066;51.560;4.642;2024-03-02T09:28:45;8.00;99.99
68251;DHT22;55066;51.560;4.642;2024-03-02T09:31:10;8.04;99.99
68251;DHT22;55066;51.560;4.642;2024-03-02T09:33:37;8.07;99.99
68251;DHT22;55066;51.560;4.642;2024-03-02T09:36:04;8.14;99.99
68251;DHT22;55066;51.560;4.642;2024-03-02T09:38:32;8.15;99.99
68251;DHT22;55066;51.560;4.642;2024-03-02T09:41:00;8.38;99.99
68251;DHT22;55066;51.560;4.642;2024-03-02T09:43:26;8.41;99.99
68251;DHT22;55066;51.560;4.642;2024-03-02T09:45:52;8.48;99.99
68251;DHT22;55066;51.560;4.642;2024-03-02T09:48:17;8.70;99.99
68251;DHT22;55066;51.560;4.642;2024-03-02T09:50:43;8.76;99.99
68251;DHT22;55066;51.560;4.642;2024-03-02T09:53:10;8.75;99.99
68251;DHT22;55066;51.560;4.642;2024-03-02T09:55:37;8.73;99.99
68251;DHT22;55066;51.560;4.642;2024-03-02T09:58:03;8.79;99.99
68251;DHT22;55066;51.560;4.642;2024-03-02T10:00:28;8.86;99.99
68251;DHT22;55066;51.560;4.642;2024-03-02T10:02:54;8.84;99.99
68251;DHT22;55066;51.560;4.642;2024-03-02T10:05:27;9.00;99.99
68251;DHT22;55066;51.560;4.642;2024-03-02T10:08:00;9.04;99.99
68251;DHT22;55066;51.560;4.642;2024-03-02T10:10:35;9.06;99.99
68251;DHT22;55066;51.560;4.642;2024-03-02T10:13:05;9.20;99.99
68251;DHT22;55066;51.560;4.642;2024-03-02T10:15:30;9.39;99.99
68251;DHT22;55066;51.560;4.642;2024-03-02T10:17:56;9.35;99.99
68251;DHT22;55066;51.560;4.642;2024-03-02T10:20:26;9.52;99.39
68251;DHT22;55066;51.560;4.642;2024-03-02T10:22:55;9.61;99.48
68251;DHT22;55066;51.560;4.642;2024-03-02T10:25:31;9.78;97.92
68251;DHT22;55066;51.560;4.642;2024-03-02T10:27:58;9.81;97.89
68251;DHT22;55066;51.560;4.642;2024-03-02T10:30:25;9.90;97.68
68251;DHT22;55066;51.560;4.642;2024-03-02T10:32:53;10.13;98.19
68251;DHT22;55066;51.560;4.642;2024-03-02T10:35:20;10.21;97.74
68251;DHT22;55066;51.560;4.642;2024-03-02T10:37:47;10.22;97.94
68251;DHT22;55066;51.560;4.642;2024-03-02T10:40:13;10.49;97.41
68251;DHT22;55066;51.560;4.642;2024-03-02T10:42:42;10.69;96.69
68251;DHT22;55066;51.560;4.642;2024-03-02T10:45:12;10.58;97.02
68251;DHT22;55066;51.560;4.642;2024-03-02T10:47:38;10.72;96.43
68251;DHT22;55066;51.560;4.642;2024-03-02T10:50:04;11.14;94.51
68251;DHT22;55066;51.560;4.642;2024-03-02T10:52:37;11.00;95.21
68251;DHT22;55066;51.560;4.642;2024-03-02T10:55:05;10.95;96.82
68251;DHT22;55066;51.560;4.642;2024-03-02T10:57:53;10.93;95.36
68251;DHT22;55066;51.560;4.642;2024-03-02T11:00:20;10.80;95.08
68251;DHT22;55066;51.560;4.642;2024-03-02T11:02:58;11.22;95.72
68251;DHT22;55066;51.560;4.642;2024-03-02T11:05:27;11.02;94.90
68251;DHT22;55066;51.560;4.642;2024-03-02T11:08:01;11.30;95.65
68251;DHT22;55066;51.560;4.642;2024-03-02T11:10:50;11.34;94.93
68251;DHT22;55066;51.560;4.642;2024-03-02T11:13:22;11.31;95.38
68251;DHT22;55066;51.560;4.642;2024-03-02T11:15:52;11.37;94.59
68251;DHT22;55066;51.560;4.642;2024-03-02T11:18:20;11.26;94.06
68251;DHT22;55066;51.560;4.642;2024-03-02T11:20:47;11.47;94.63
68251;DHT22;55066;51.560;4.642;2024-03-02T11:23:13;11.45;93.49
68251;DHT22;55066;51.560;4.642;2024-03-02T11:25:39;11.60;94.54
68251;DHT22;55066;51.560;4.642;2024-03-02T11:28:06;11.58;93.97
68251;DHT22;55066;51.560;4.642;2024-03-02T11:33:01;11.61;94.29
68251;DHT22;55066;51.560;4.642;2024-03-02T11:35:37;11.68;94.47
68251;DHT22;55066;51.560;4.642;2024-03-02T11:38:03;11.55;93.72
68251;DHT22;55066;51.560;4.642;2024-03-02T11:40:29;11.55;92.78
68251;DHT22;55066;51.560;4.642;2024-03-02T11:42:56;11.35;95.95
68251;DHT22;55066;51.560;4.642;2024-03-02T11:45:25;11.34;92.73
68251;DHT22;55066;51.560;4.642;2024-03-02T11:47:53;11.42;93.65
68251;DHT22;55066;51.560;4.642;2024-03-02T11:50:51;11.64;92.75
68251;DHT22;55066;51.560;4.642;2024-03-02T11:53:18;11.72;94.62
68251;DHT22;55066;51.560;4.642;2024-03-02T11:55:45;12.00;92.51
68251;DHT22;55066;51.560;4.642;2024-03-02T11:58:13;11.99;94.49
68251;DHT22;55066;51.560;4.642;2024-03-02T12:00:39;12.02;93.73
68251;DHT22;55066;51.560;4.642;2024-03-02T12:03:07;12.26;91.77
68251;DHT22;55066;51.560;4.642;2024-03-02T12:05:33;12.51;93.89
68251;DHT22;55066;51.560;4.642;2024-03-02T12:08:00;12.09;91.23
68251;DHT22;55066;51.560;4.642;2024-03-02T12:10:27;11.86;91.61
68251;DHT22;55066;51.560;4.642;2024-03-02T12:12:59;12.24;90.89
68251;DHT22;55066;51.560;4.642;2024-03-02T12:15:35;12.50;90.05
68251;DHT22;55066;51.560;4.642;2024-03-02T12:18:04;12.69;89.96
68251;DHT22;55066;51.560;4.642;2024-03-02T12:20:31;12.92;89.70
68251;DHT22;55066;51.560;4.642;2024-03-02T12:23:01;13.02;89.40
68251;DHT22;55066;51.560;4.642;2024-03-02T12:25:27;13.00;89.54
68251;DHT22;55066;51.560;4.642;2024-03-02T12:27:55;12.98;89.61
68251;DHT22;55066;51.560;4.642;2024-03-02T12:30:21;12.91;89.15
68251;DHT22;55066;51.560;4.642;2024-03-02T12:32:47;12.77;89.18
68251;DHT22;55066;51.560;4.642;2024-03-02T12:35:13;12.87;89.88
68251;DHT22;55066;51.560;4.642;2024-03-02T12:37:49;13.12;89.48
68251;DHT22;55066;51.560;4.642;2024-03-02T12:40:17;13.56;88.98
68251;DHT22;55066;51.560;4.642;2024-03-02T12:42:47;13.47;88.55
68251;DHT22;55066;51.560;4.642;2024-03-02T12:45:13;13.32;89.64
68251;DHT22;55066;51.560;4.642;2024-03-02T12:47:40;13.53;88.90
68251;DHT22;55066;51.560;4.642;2024-03-02T12:50:07;13.29;88.58
68251;DHT22;55066;51.560;4.642;2024-03-02T12:52:33;12.96;89.28
68251;DHT22;55066;51.560;4.642;2024-03-02T12:55:04;12.95;89.80
68251;DHT22;55066;51.560;4.642;2024-03-02T12:57:30;12.88;89.72
68251;DHT22;55066;51.560;4.642;2024-03-02T13:00:00;12.82;89.14
68251;DHT22;55066;51.560;4.642;2024-03-02T13:02:30;13.10;89.92
68251;DHT22;55066;51.560;4.642;2024-03-02T13:04:58;13.10;94.10
68251;DHT22;55066;51.560;4.642;2024-03-02T13:07:24;13.00;89.80
68251;DHT22;55066;51.560;4.642;2024-03-02T13:09:50;13.48;91.72
68251;DHT22;55066;51.560;4.642;2024-03-02T13:12:19;13.47;87.91
68251;DHT22;55066;51.560;4.642;2024-03-02T13:14:44;13.18;88.27
68251;DHT22;55066;51.560;4.642;2024-03-02T13:17:10;13.09;88.89
68251;DHT22;55066;51.560;4.642;2024-03-02T13:19:35;13.03;89.82
68251;DHT22;55066;51.560;4.642;2024-03-02T13:22:01;12.87;91.36
68251;DHT22;55066;51.560;4.642;2024-03-02T13:24:30;12.72;92.69
68251;DHT22;55066;51.560;4.642;2024-03-02T13:26:58;12.64;90.70
68251;DHT22;55066;51.560;4.642;2024-03-02T13:29:25;12.72;90.56
68251;DHT22;55066;51.560;4.642;2024-03-02T13:31:50;12.45;91.28
68251;DHT22;55066;51.560;4.642;2024-03-02T13:34:16;12.58;90.88
68251;DHT22;55066;51.560;4.642;2024-03-02T13:36:42;12.47;90.78
68251;DHT22;55066;51.560;4.642;2024-03-02T13:39:07;12.65;90.75
68251;DHT22;55066;51.560;4.642;2024-03-02T13:41:36;12.87;90.37
68251;DHT22;55066;51.560;4.642;2024-03-02T13:44:02;13.20;90.11
68251;DHT22;55066;51.560;4.642;2024-03-02T13:46:28;13.30;89.49
68251;DHT22;55066;51.560;4.642;2024-03-02T13:48:54;13.20;89.71
68251;DHT22;55066;51.560;4.642;2024-03-02T13:51:23;13.00;89.95
68251;DHT22;55066;51.560;4.642;2024-03-02T13:53:50;12.96;95.63
68251;DHT22;55066;51.560;4.642;2024-03-02T13:56:16;12.61;95.19
68251;DHT22;55066;51.560;4.642;2024-03-02T13:58:42;12.51;96.61
68251;DHT22;55066;51.560;4.642;2024-03-02T14:01:09;12.33;91.27
68251;DHT22;55066;51.560;4.642;2024-03-02T14:03:34;12.36;92.07
68251;DHT22;55066;51.560;4.642;2024-03-02T14:06:00;12.43;91.97
68251;DHT22;55066;51.560;4.642;2024-03-02T14:08:26;12.48;91.26
68251;DHT22;55066;51.560;4.642;2024-03-02T14:10:52;12.67;94.58
68251;DHT22;55066;51.560;4.642;2024-03-02T14:13:17;12.57;94.94
68251;DHT22;55066;51.560;4.642;2024-03-02T14:15:43;12.64;92.20
68251;DHT22;55066;51.560;4.642;2024-03-02T14:18:08;12.48;90.86
68251;DHT22;55066;51.560;4.642;2024-03-02T14:20:36;12.65;90.16
68251;DHT22;55066;51.560;4.642;2024-03-02T14:23:03;12.72;92.55
68251;DHT22;55066;51.560;4.642;2024-03-02T14:25:32;12.84;92.99
68251;DHT22;55066;51.560;4.642;2024-03-02T14:27:59;12.64;91.38
68251;DHT22;55066;51.560;4.642;2024-03-02T14:30:25;12.81;92.73
68251;DHT22;55066;51.560;4.642;2024-03-02T14:32:50;12.81;92.54
68251;DHT22;55066;51.560;4.642;2024-03-02T14:35:16;12.96;91.05
68251;DHT22;55066;51.560;4.642;2024-03-02T14:37:42;12.93;91.48
68251;DHT22;55066;51.560;4.642;2024-03-02T14:40:08;12.72;91.25
68251;DHT22;55066;51.560;4.642;2024-03-02T14:42:35;12.72;90.87
68251;DHT22;55066;51.560;4.642;2024-03-02T14:45:01;12.72;92.16
68251;DHT22;55066;51.560;4.642;2024-03-02T14:47:29;12.61;92.72
68251;DHT22;55066;51.560;4.642;2024-03-02T14:49:57;12.55;91.03
68251;DHT22;55066;51.560;4.642;2024-03-02T14:52:23;12.74;92.48
68251;DHT22;55066;51.560;4.642;2024-03-02T14:54:48;12.75;93.96
68251;DHT22;55066;51.560;4.642;2024-03-02T14:57:14;12.48;91.36
68251;DHT22;55066;51.560;4.642;2024-03-02T14:59:39;12.43;92.78
68251;DHT22;55066;51.560;4.642;2024-03-02T15:02:07;12.32;93.11
68251;DHT22;55066;51.560;4.642;2024-03-02T15:04:36;12.29;93.84
68251;DHT22;55066;51.560;4.642;2024-03-02T15:07:04;12.37;92.44
68251;DHT22;55066;51.560;4.642;2024-03-02T15:09:29;12.68;93.82
68251;DHT22;55066;51.560;4.642;2024-03-02T15:11:55;12.85;92.02
68251;DHT22;55066;51.560;4.642;2024-03-02T15:14:22;12.95;90.19
68251;DHT22;55066;51.560;4.642;2024-03-02T15:16:47;12.95;90.89
68251;DHT22;55066;51.560;4.642;2024-03-02T15:19:13;12.92;90.80
68251;DHT22;55066;51.560;4.642;2024-03-02T15:21:39;12.75;92.38
68251;DHT22;55066;51.560;4.642;2024-03-02T15:24:05;12.67;92.34
68251;DHT22;55066;51.560;4.642;2024-03-02T15:26:31;12.64;91.99
68251;DHT22;55066;51.560;4.642;2024-03-02T15:28:56;12.50;92.37
68251;DHT22;55066;51.560;4.642;2024-03-02T15:31:24;12.41;92.62
68251;DHT22;55066;51.560;4.642;2024-03-02T15:33:50;12.41;93.81
68251;DHT22;55066;51.560;4.642;2024-03-02T15:36:16;12.48;92.88
68251;DHT22;55066;51.560;4.642;2024-03-02T15:38:41;12.62;95.80
68251;DHT22;55066;51.560;4.642;2024-03-02T15:41:07;12.55;92.50
68251;DHT22;55066;51.560;4.642;2024-03-02T15:43:32;12.67;92.09
68251;DHT22;55066;51.560;4.642;2024-03-02T15:46:01;12.69;92.12
68251;DHT22;55066;51.560;4.642;2024-03-02T15:48:27;12.68;92.46
68251;DHT22;55066;51.560;4.642;2024-03-02T15:50:53;12.48;92.65
68251;DHT22;55066;51.560;4.642;2024-03-02T15:53:19;12.40;94.43
68251;DHT22;55066;51.560;4.642;2024-03-02T15:55:44;12.27;93.97
68251;DHT22;55066;51.560;4.642;2024-03-02T15:58:10;12.26;95.66
68251;DHT22;55066;51.560;4.642;2024-03-02T16:00:35;12.13;94.12
68251;DHT22;55066;51.560;4.642;2024-03-02T16:03:01;12.07;94.30
68251;DHT22;55066;51.560;4.642;2024-03-02T16:05:27;12.05;95.69
68251;DHT22;55066;51.560;4.642;2024-03-02T16:07:52;12.00;95.93
68251;DHT22;55066;51.560;4.642;2024-03-02T16:10:17;12.02;96.24
68251;DHT22;55066;51.560;4.642;2024-03-02T16:12:43;11.96;95.83
68251;DHT22;55066;51.560;4.642;2024-03-02T16:15:08;11.89;95.89
68251;DHT22;55066;51.560;4.642;2024-03-02T16:17:34;11.89;95.63
68251;DHT22;55066;51.560;4.642;2024-03-02T16:20:01;11.81;97.70
68251;DHT22;55066;51.560;4.642;2024-03-02T16:22:34;11.75;96.17
68251;DHT22;55066;51.560;4.642;2024-03-02T16:24:59;11.74;96.22
68251;DHT22;55066;51.560;4.642;2024-03-02T16:27:32;11.81;97.56
68251;DHT22;55066;51.560;4.642;2024-03-02T16:29:58;11.72;97.17
68251;DHT22;55066;51.560;4.642;2024-03-02T16:32:24;11.78;97.03
68251;DHT22;55066;51.560;4.642;2024-03-02T16:34:51;11.72;96.64
68251;DHT22;55066;51.560;4.642;2024-03-02T16:37:17;11.68;97.12
68251;DHT22;55066;51.560;4.642;2024-03-02T16:39:43;11.81;99.99
68251;DHT22;55066;51.560;4.642;2024-03-02T16:42:09;11.71;97.34
68251;DHT22;55066;51.560;4.642;2024-03-02T16:44:34;11.65;98.13
68251;DHT22;55066;51.560;4.642;2024-03-02T16:47:00;11.60;98.20
68251;DHT22;55066;51.560;4.642;2024-03-02T16:49:25;11.58;98.33
68251;DHT22;55066;51.560;4.642;2024-03-02T16:51:51;11.50;98.48
68251;DHT22;55066;51.560;4.642;2024-03-02T16:54:18;11.50;98.57
68251;DHT22;55066;51.560;4.642;2024-03-02T16:56:44;11.55;98.41
68251;DHT22;55066;51.560;4.642;2024-03-02T16:59:09;11.52;98.58